createdAt,value
2023-02-03T00:00:58.105Z,11.48
2023-02-03T00:03:47.121Z,11.53
2023-02-03T00:06:37.144Z,11.48
2023-02-03T00:09:20.055Z,11.38
2023-02-03T00:12:09.171Z,11.40
2023-02-03T00:14:58.057Z,11.36
2023-02-03T00:17:47.116Z,11.38
2023-02-03T00:20:29.529Z,11.63
2023-02-03T00:23:24.104Z,11.52
2023-02-03T00:26:13.767Z,11.31
2023-02-03T00:29:03.225Z,11.29
2023-02-03T00:31:51.501Z,11.29
2023-02-03T00:34:38.096Z,11.57
2023-02-03T00:37:26.485Z,11.45
2023-02-03T00:40:10.178Z,11.48
2023-02-03T00:42:58.447Z,11.36
2023-02-03T00:45:41.244Z,11.45
2023-02-03T00:48:29.465Z,11.42
2023-02-03T00:51:12.124Z,11.47
2023-02-03T00:53:54.457Z,11.35
2023-02-03T00:56:45.114Z,11.33
2023-02-03T00:59:27.399Z,11.45
2023-02-03T01:02:16.264Z,11.59
2023-02-03T01:05:07.429Z,11.74
2023-02-03T01:07:51.229Z,11.71
2023-02-03T01:10:40.463Z,11.58
2023-02-03T01:13:23.237Z,11.61
2023-02-03T01:16:14.458Z,11.68
2023-02-03T01:18:57.190Z,11.62
2023-02-03T01:21:47.881Z,11.68
2023-02-03T01:24:31.112Z,11.77
2023-02-03T01:27:13.496Z,11.84
2023-02-03T01:30:02.141Z,11.96
2023-02-03T01:32:44.467Z,11.85
2023-02-03T01:35:33.158Z,11.81
2023-02-03T01:38:22.375Z,11.81
2023-02-03T01:41:05.078Z,11.64
2023-02-03T01:43:57.501Z,11.63
2023-02-03T01:47:03.123Z,11.74
2023-02-03T01:50:01.121Z,11.61
2023-02-03T01:52:44.402Z,11.56
2023-02-03T01:55:42.104Z,11.49
2023-02-03T01:58:41.401Z,11.50
2023-02-03T02:01:30.175Z,11.69
2023-02-03T02:04:13.469Z,11.58
2023-02-03T02:07:07.084Z,11.32
2023-02-03T02:09:50.344Z,11.45
2023-02-03T02:12:39.101Z,11.35
2023-02-03T02:15:22.427Z,11.25
2023-02-03T02:18:30.105Z,11.11
2023-02-03T02:21:31.100Z,11.24
2023-02-03T02:24:23.111Z,11.16
2023-02-03T02:27:24.138Z,11.28
2023-02-03T02:30:56.265Z,11.33
2023-02-03T02:34:21.458Z,11.35
2023-02-03T02:37:17.105Z,11.51
2023-02-03T02:40:19.140Z,11.39
2023-02-03T02:43:18.379Z,11.74
2023-02-03T02:46:42.158Z,11.51
2023-02-03T02:49:42.354Z,11.52
2023-02-03T02:52:34.233Z,11.52
2023-02-03T02:55:29.412Z,11.64
2023-02-03T02:58:25.160Z,11.81
2023-02-03T03:01:07.420Z,11.83
2023-02-03T03:03:58.100Z,11.89
2023-02-03T03:06:58.070Z,12.16
2023-02-03T03:09:50.348Z,12.49
2023-02-03T03:12:45.072Z,12.70
2023-02-03T03:15:38.998Z,12.89
2023-02-03T03:18:28.101Z,13.12
2023-02-03T03:21:19.361Z,13.49
2023-02-03T03:24:05.126Z,14.08
2023-02-03T03:27:24.098Z,14.79
2023-02-03T03:30:19.455Z,15.45
2023-02-03T03:33:02.144Z,16.15
2023-02-03T03:36:04.758Z,16.72
2023-02-03T03:39:08.138Z,17.19
2023-02-03T03:42:10.457Z,17.29
2023-02-03T03:45:03.103Z,17.72
2023-02-03T03:47:55.163Z,17.65
2023-02-03T03:50:53.114Z,17.46
2023-02-03T03:53:38.565Z,17.71
2023-02-03T03:56:34.083Z,18.31
2023-02-03T03:59:28.345Z,18.88
2023-02-03T04:02:12.218Z,18.85
2023-02-03T04:04:55.641Z,19.21
2023-02-03T04:07:58.086Z,19.43
2023-02-03T04:10:42.867Z,19.70
2023-02-03T04:13:32.110Z,19.33
2023-02-03T04:16:21.536Z,18.94
2023-02-03T04:19:04.636Z,18.32
2023-02-03T04:21:54.135Z,18.18
2023-02-03T04:24:36.391Z,18.92
2023-02-03T04:27:25.200Z,19.36
2023-02-03T04:30:14.418Z,19.76
2023-02-03T04:32:57.076Z,19.57
2023-02-03T04:35:46.083Z,19.64
2023-02-03T04:38:28.408Z,19.10
2023-02-03T04:41:17.107Z,18.82
2023-02-03T04:43:59.511Z,19.10
2023-02-03T04:46:48.114Z,20.29
2023-02-03T04:49:31.422Z,20.44
2023-02-03T04:52:21.105Z,20.40
2023-02-03T04:55:12.119Z,20.22
2023-02-03T04:58:08.354Z,20.65
2023-02-03T05:00:50.145Z,21.02
2023-02-03T05:03:38.490Z,20.34
2023-02-03T05:06:21.149Z,20.53
2023-02-03T05:09:10.378Z,20.89
2023-02-03T05:11:52.058Z,20.82
2023-02-03T05:14:34.343Z,21.33
2023-02-03T05:17:23.154Z,21.63
2023-02-03T05:20:12.368Z,21.55
2023-02-03T05:22:55.065Z,21.92
2023-02-03T05:25:44.099Z,21.78
2023-02-03T05:28:26.374Z,21.82
2023-02-03T05:31:15.175Z,21.37
2023-02-03T05:33:57.359Z,22.08
2023-02-03T05:36:46.380Z,22.40
2023-02-03T05:39:28.535Z,22.04
2023-02-03T05:42:17.059Z,21.94
2023-02-03T05:44:59.526Z,22.58
2023-02-03T05:47:48.113Z,22.83
2023-02-03T05:50:35.303Z,22.84
2023-02-03T05:53:27.176Z,22.61
2023-02-03T05:56:09.547Z,22.78
2023-02-03T05:59:01.088Z,22.82
2023-02-03T06:01:50.011Z,22.65
2023-02-03T06:04:39.108Z,23.18
2023-02-03T06:07:28.081Z,22.78
2023-02-03T06:10:17.985Z,23.25
2023-02-03T06:13:07.111Z,23.38
2023-02-03T06:15:56.447Z,23.61
2023-02-03T06:18:39.071Z,22.88
2023-02-03T06:21:35.116Z,23.04
2023-02-03T06:24:17.295Z,23.42
2023-02-03T06:27:06.168Z,23.58
2023-02-03T06:29:48.292Z,23.90
2023-02-03T06:32:37.182Z,23.00
2023-02-03T06:35:20.142Z,23.50
2023-02-03T06:38:09.050Z,23.77
2023-02-03T06:40:51.712Z,23.90
2023-02-03T06:43:41.097Z,23.92
2023-02-03T06:46:31.245Z,23.89
2023-02-03T06:49:13.144Z,23.86
2023-02-03T06:52:01.370Z,23.85
2023-02-03T06:54:43.104Z,23.35
2023-02-03T06:57:31.384Z,23.52
2023-02-03T07:00:15.597Z,23.41
2023-02-03T07:03:00.843Z,23.48
2023-02-03T07:05:50.165Z,23.38
2023-02-03T07:08:39.324Z,23.23
2023-02-03T07:11:21.172Z,23.26
2023-02-03T07:14:10.362Z,22.95
2023-02-03T07:16:53.073Z,23.13
2023-02-03T07:19:42.059Z,23.47
2023-02-03T07:22:24.349Z,23.67
2023-02-03T07:25:13.053Z,23.63
2023-02-03T07:27:55.449Z,23.71
2023-02-03T07:30:44.122Z,23.82
2023-02-03T07:33:26.525Z,23.93
2023-02-03T07:36:16.050Z,23.76
2023-02-03T07:38:58.575Z,23.73
2023-02-03T07:41:48.078Z,23.73
2023-02-03T07:44:31.429Z,23.93
2023-02-03T07:47:20.355Z,23.83
2023-02-03T07:50:02.530Z,23.62
2023-02-03T07:52:51.088Z,23.79
2023-02-03T07:55:33.788Z,23.90
2023-02-03T07:58:25.052Z,23.77
2023-02-03T08:01:07.323Z,23.52
2023-02-03T08:03:56.164Z,23.28
2023-02-03T08:06:38.518Z,23.31
2023-02-03T08:09:27.031Z,23.32
2023-02-03T08:12:16.095Z,23.31
2023-02-03T08:14:58.349Z,23.48
2023-02-03T08:17:50.116Z,23.53
2023-02-03T08:20:39.528Z,23.59
2023-02-03T08:23:21.043Z,23.53
2023-02-03T08:26:10.550Z,23.45
2023-02-03T08:29:06.035Z,23.57
2023-02-03T08:31:55.473Z,23.79
2023-02-03T08:34:56.273Z,23.75
2023-02-03T08:37:38.575Z,23.84
2023-02-03T08:40:28.273Z,23.87
2023-02-03T08:43:10.387Z,23.94
2023-02-03T08:46:00.205Z,23.77
2023-02-03T08:48:42.553Z,23.69
2023-02-03T08:51:32.117Z,23.56
2023-02-03T08:54:14.505Z,23.36
2023-02-03T08:57:03.356Z,23.43
2023-02-03T08:59:50.670Z,23.29
2023-02-03T09:02:39.130Z,23.35
2023-02-03T09:05:21.514Z,23.33
2023-02-03T09:08:10.174Z,23.22
2023-02-03T09:10:52.492Z,23.28
2023-02-03T09:13:42.113Z,23.14
2023-02-03T09:16:27.701Z,23.24
2023-02-03T09:19:17.045Z,23.24
2023-02-03T09:21:59.532Z,23.39
2023-02-03T09:24:48.101Z,23.35
2023-02-03T09:27:30.459Z,23.42
2023-02-03T09:30:20.157Z,23.42
2023-02-03T09:33:03.397Z,23.39
2023-02-03T09:36:01.025Z,23.45
2023-02-03T09:38:43.470Z,23.50
2023-02-03T09:41:52.245Z,23.41
2023-02-03T09:45:01.343Z,23.45
2023-02-03T09:47:53.079Z,23.35
2023-02-03T09:50:40.351Z,23.20
2023-02-03T09:53:39.043Z,23.00
2023-02-03T09:56:37.394Z,22.85
2023-02-03T09:59:27.095Z,22.91
2023-02-03T10:02:34.164Z,22.92
2023-02-03T10:05:32.001Z,22.81
2023-02-03T10:08:32.674Z,22.64
2023-02-03T10:11:45.072Z,22.65
2023-02-03T10:14:27.450Z,22.71
2023-02-03T10:17:38.092Z,22.63
2023-02-03T10:20:44.013Z,22.57
2023-02-03T10:23:30.476Z,22.46
2023-02-03T10:26:35.014Z,22.47
2023-02-03T10:29:45.954Z,22.49
2023-02-03T10:32:36.174Z,22.28
2023-02-03T10:35:23.404Z,22.07
2023-02-03T10:38:21.099Z,22.02
2023-02-03T10:41:10.190Z,22.05
2023-02-03T10:43:56.031Z,22.01
2023-02-03T10:46:51.048Z,21.99
2023-02-03T10:49:41.586Z,21.93
2023-02-03T10:53:00.141Z,21.88
2023-02-03T10:55:42.466Z,21.89
2023-02-03T10:58:41.996Z,21.83
2023-02-03T11:01:35.213Z,21.86
2023-02-03T11:04:39.493Z,21.88
2023-02-03T11:07:38.115Z,21.87
2023-02-03T11:10:36.828Z,21.82
2023-02-03T11:13:27.116Z,21.82
2023-02-03T11:16:29.463Z,21.82
2023-02-03T11:19:25.066Z,21.77
2023-02-03T11:22:14.011Z,21.70
2023-02-03T11:25:03.431Z,21.63
2023-02-03T11:27:46.381Z,21.58
2023-02-03T11:30:36.460Z,21.50
2023-02-03T11:33:27.014Z,21.46
2023-02-03T11:36:19.691Z,21.37
2023-02-03T11:39:37.073Z,21.26
2023-02-03T11:42:27.856Z,21.22
2023-02-03T11:45:51.013Z,21.15
2023-02-03T11:49:04.166Z,21.09
2023-02-03T11:52:17.120Z,21.10
2023-02-03T11:55:22.915Z,21.20
2023-02-03T11:58:43.068Z,21.33
2023-02-03T12:02:08.362Z,21.60
2023-02-03T12:05:12.100Z,21.76
2023-02-03T12:08:13.379Z,21.65
2023-02-03T12:11:14.158Z,21.63
2023-02-03T12:14:30.047Z,21.51
2023-02-03T12:18:00.071Z,21.11
2023-02-03T12:21:27.517Z,21.04
2023-02-03T12:24:32.114Z,21.03
2023-02-03T12:27:43.955Z,20.90
2023-02-03T12:30:54.047Z,20.81
2023-02-03T12:33:57.371Z,20.88
2023-02-03T12:36:49.010Z,20.90
2023-02-03T12:39:40.446Z,20.90
2023-02-03T12:42:36.328Z,20.89
2023-02-03T12:45:38.017Z,20.77
2023-02-03T12:48:26.419Z,20.81
2023-02-03T12:51:24.089Z,20.81
2023-02-03T12:54:29.439Z,20.88
2023-02-03T12:57:24.019Z,20.77
2023-02-03T13:00:27.964Z,20.62
2023-02-03T13:03:38.130Z,20.44
2023-02-03T13:06:47.464Z,20.30
2023-02-03T13:09:57.096Z,20.19
2023-02-03T13:12:42.223Z,20.14
2023-02-03T13:15:48.034Z,20.03
2023-02-03T13:18:56.545Z,20.04
2023-02-03T13:21:45.124Z,19.98
2023-02-03T13:24:32.522Z,20.01
2023-02-03T13:27:58.188Z,20.08
2023-02-03T13:31:06.010Z,19.98
2023-02-03T13:34:27.100Z,19.95
2023-02-03T13:37:44.492Z,19.98
2023-02-03T13:41:04.544Z,19.88
2023-02-03T13:43:54.738Z,19.88
2023-02-03T13:46:44.971Z,19.97
2023-02-03T13:49:35.444Z,19.93
2023-02-03T13:52:46.988Z,19.89
2023-02-03T13:55:45.105Z,19.88
2023-02-03T13:58:33.825Z,19.85
2023-02-03T14:01:45.046Z,19.81
2023-02-03T14:04:36.804Z,19.79
2023-02-03T14:07:48.057Z,19.76
2023-02-03T14:10:37.415Z,19.73
2023-02-03T14:13:37.175Z,19.80
2023-02-03T14:16:33.438Z,19.66
2023-02-03T14:19:40.044Z,19.46
2023-02-03T14:22:29.120Z,19.29
2023-02-03T14:25:15.505Z,19.26
2023-02-03T14:28:14.098Z,19.22
2023-02-03T14:31:38.115Z,19.17
2023-02-03T14:34:36.032Z,19.17
2023-02-03T14:37:22.054Z,19.08
2023-02-03T14:40:24.866Z,19.02
2023-02-03T14:43:22.514Z,19.00
2023-02-03T14:46:52.179Z,19.07
2023-02-03T14:49:47.048Z,18.93
2023-02-03T14:52:53.618Z,18.91
2023-02-03T14:56:06.985Z,18.93
2023-02-03T14:59:04.142Z,18.99
2023-02-03T15:01:53.116Z,19.14
2023-02-03T15:04:42.109Z,18.91
2023-02-03T15:08:04.434Z,18.92
2023-02-03T15:10:53.968Z,18.80
2023-02-03T15:13:40.321Z,18.72
2023-02-03T15:16:32.095Z,18.63
2023-02-03T15:19:25.633Z,18.56
2023-02-03T15:22:33.976Z,18.53
2023-02-03T15:25:29.565Z,18.44
2023-02-03T15:28:28.098Z,18.53
2023-02-03T15:31:40.372Z,18.38
2023-02-03T15:34:51.093Z,18.22
2023-02-03T15:37:48.139Z,18.11
2023-02-03T15:40:35.448Z,17.99
2023-02-03T15:43:45.329Z,17.95
2023-02-03T15:46:48.070Z,17.92
2023-02-03T15:49:47.102Z,17.93
2023-02-03T15:52:33.371Z,17.90
2023-02-03T15:55:41.067Z,17.85
2023-02-03T15:58:32.417Z,17.84
2023-02-03T16:01:23.060Z,17.85
2023-02-03T16:04:08.142Z,17.85
2023-02-03T16:07:00.158Z,17.93
2023-02-03T16:09:48.432Z,17.97
2023-02-03T16:12:40.146Z,17.94
2023-02-03T16:15:31.624Z,17.92
2023-02-03T16:18:26.097Z,17.90
2023-02-03T16:21:08.507Z,17.89
2023-02-03T16:24:00.093Z,17.86
2023-02-03T16:26:43.470Z,17.88
2023-02-03T16:29:56.064Z,17.85
2023-02-03T16:33:04.006Z,17.81
2023-02-03T16:36:05.085Z,17.79
2023-02-03T16:39:10.173Z,17.76
2023-02-03T16:42:18.026Z,17.70
2023-02-03T16:45:25.893Z,17.74
2023-02-03T16:48:27.476Z,17.73
2023-02-03T16:51:23.367Z,17.59
2023-02-03T16:54:05.014Z,17.55
2023-02-03T16:56:55.535Z,17.44
2023-02-03T16:59:58.977Z,17.34
2023-02-03T17:02:50.125Z,17.26
2023-02-03T17:05:33.203Z,17.21
2023-02-03T17:08:23.515Z,17.15
2023-02-03T17:11:12.186Z,17.05
2023-02-03T17:14:01.504Z,16.99
2023-02-03T17:16:43.161Z,16.90
2023-02-03T17:19:33.369Z,16.87
2023-02-03T17:22:16.090Z,16.74
2023-02-03T17:25:06.445Z,16.69
2023-02-03T17:27:48.103Z,16.64
2023-02-03T17:30:44.130Z,16.62
2023-02-03T17:33:33.318Z,16.59
2023-02-03T17:36:19.129Z,16.75
2023-02-03T17:54:26.483Z,16.85
2023-02-03T17:57:17.836Z,16.87
2023-02-03T18:00:02.957Z,16.98
2023-02-03T18:02:58.481Z,16.99
2023-02-03T18:05:40.986Z,16.95
2023-02-03T18:08:30.411Z,16.99
2023-02-03T18:11:13.073Z,17.04
2023-02-03T18:14:02.318Z,17.03
2023-02-03T18:16:45.095Z,17.03
2023-02-03T18:19:33.353Z,17.03
2023-02-03T18:22:16.008Z,17.04
2023-02-03T18:25:05.454Z,17.07
2023-02-03T18:27:48.079Z,17.01
2023-02-03T18:30:44.949Z,16.99
2023-02-03T18:33:33.955Z,16.87
2023-02-03T18:36:17.894Z,16.87
2023-02-03T18:39:06.032Z,16.87
2023-02-03T18:41:48.397Z,16.78
2023-02-03T18:44:37.012Z,16.76
2023-02-03T18:47:21.292Z,16.54
2023-02-03T18:50:10.054Z,16.51
2023-02-03T18:52:53.607Z,16.45
2023-02-03T18:55:43.504Z,16.34
2023-02-03T18:58:25.414Z,16.29
2023-02-03T19:01:14.022Z,16.28
2023-02-03T19:03:56.289Z,16.22
2023-02-03T19:06:45.062Z,16.15
2023-02-03T19:09:28.440Z,16.08
2023-02-03T19:12:16.949Z,16.03
2023-02-03T19:14:59.411Z,15.87
2023-02-03T19:17:48.088Z,15.85
2023-02-03T19:20:30.706Z,15.92
2023-02-03T19:23:22.032Z,15.87
2023-02-03T19:26:05.300Z,15.82
2023-02-03T19:28:54.076Z,15.72
2023-02-03T19:31:49.056Z,15.73
2023-02-03T19:34:38.032Z,15.68
2023-02-03T19:37:20.302Z,15.66
2023-02-03T19:40:08.996Z,15.61
2023-02-03T19:42:51.365Z,15.53
2023-02-03T19:45:40.077Z,15.53
2023-02-03T19:48:22.520Z,15.51
2023-02-03T19:51:11.004Z,15.52
2023-02-03T19:53:53.766Z,15.54
2023-02-03T19:56:43.023Z,15.51
2023-02-03T19:59:25.442Z,15.47
2023-02-03T20:02:14.750Z,15.43
2023-02-03T20:04:57.440Z,15.50
2023-02-03T20:07:45.953Z,15.49
2023-02-03T20:10:29.069Z,15.48
2023-02-03T20:13:19.273Z,15.47
2023-02-03T20:16:01.435Z,15.45
2023-02-03T20:18:50.002Z,15.49
2023-02-03T20:21:32.330Z,15.46
2023-02-03T20:24:21.978Z,15.35
2023-02-03T20:27:04.360Z,15.39
2023-02-03T20:29:53.011Z,15.36
2023-02-03T20:32:42.330Z,15.34
2023-02-03T20:35:26.562Z,15.27
2023-02-03T20:38:14.921Z,15.29
2023-02-03T20:41:05.061Z,15.32
2023-02-03T20:43:54.470Z,15.28
2023-02-03T20:46:36.094Z,15.27
2023-02-03T20:49:26.743Z,15.23
2023-02-03T20:52:24.990Z,15.21
2023-02-03T20:55:15.205Z,15.08
2023-02-03T20:58:05.012Z,15.05
2023-02-03T21:00:58.258Z,15.00
2023-02-03T21:03:59.047Z,14.92
2023-02-03T21:06:47.962Z,14.82
2023-02-03T21:09:31.369Z,14.85
2023-02-03T21:12:21.048Z,14.79
2023-02-03T21:15:03.376Z,14.76
2023-02-03T21:17:51.998Z,14.74
2023-02-03T21:20:37.334Z,14.67
2023-02-03T21:23:25.970Z,14.59
2023-02-03T21:26:08.280Z,14.66
2023-02-03T21:29:00.570Z,14.70
2023-02-03T21:31:55.921Z,14.58
2023-02-03T21:34:44.992Z,14.56
2023-02-03T21:37:54.948Z,14.49
2023-02-03T21:40:44.011Z,14.57
2023-02-03T21:43:26.484Z,14.52
2023-02-03T21:46:39.948Z,14.53
2023-02-03T21:49:23.436Z,14.68
2023-02-03T21:52:12.019Z,14.68
2023-02-03T21:54:54.819Z,14.71
2023-02-03T21:57:44.137Z,14.70
2023-02-03T22:00:49.551Z,14.66
2023-02-03T22:03:51.035Z,14.73
2023-02-03T22:06:50.234Z,14.85
2023-02-03T22:09:40.030Z,14.79
2023-02-03T22:12:22.311Z,14.67
2023-02-03T22:15:10.981Z,14.64
2023-02-03T22:17:53.338Z,14.57
2023-02-03T22:20:42.089Z,14.54
2023-02-03T22:23:24.272Z,14.55
2023-02-03T22:26:13.062Z,14.56
2023-02-03T22:28:55.318Z,14.51
2023-02-03T22:31:51.155Z,14.47
2023-02-03T22:34:39.286Z,14.39
2023-02-03T22:37:20.937Z,14.43
2023-02-03T22:40:11.208Z,14.39
2023-02-03T22:42:54.031Z,14.35
2023-02-03T22:45:42.336Z,14.37
2023-02-03T22:48:25.075Z,14.36
2023-02-03T22:51:14.228Z,14.35
2023-02-03T22:53:57.068Z,14.30
2023-02-03T22:56:45.267Z,14.31
2023-02-03T22:59:27.017Z,14.27
2023-02-03T23:02:09.225Z,14.35
2023-02-03T23:05:00.990Z,14.27
2023-02-03T23:07:50.205Z,14.27
2023-02-03T23:10:37.986Z,14.19
2023-02-03T23:13:26.376Z,14.19
2023-02-03T23:16:08.139Z,14.16
2023-02-03T23:18:56.213Z,14.21
2023-02-03T23:21:38.940Z,14.19
2023-02-03T23:24:27.246Z,14.08
2023-02-03T23:27:10.021Z,14.05
2023-02-03T23:29:58.305Z,14.01
2023-02-03T23:32:46.937Z,13.98
2023-02-03T23:35:48.963Z,14.03
2023-02-03T23:38:37.970Z,14.05
2023-02-03T23:41:20.285Z,14.03
2023-02-03T23:44:08.980Z,14.06
2023-02-03T23:46:58.005Z,14.06
2023-02-03T23:49:46.886Z,13.91
2023-02-03T23:52:43.016Z,13.83
2023-02-03T23:55:25.751Z,13.83
2023-02-03T23:58:14.917Z,13.84
